Latest Weather Observations for Richmond

IDN60801

Issued at 1:03 pm EDT Tuesday 21 November 2017 (issued every 30 minutes, with the page automatically refreshed every 10 minutes)

About weather observations | Map of weather stations | Latest weather observations for NSW | Other Formats
Station Details ID: 067105 Name: RICHMOND RAAF Lat: -33.60 Lon: 150.78 Height: 19.0 m
Data from the previous 72 hours. | See also: Recent months at Richmond
Date/Time
EDT
Temp
°C
App
Temp
°C
Dew
Point
°C
Rel
Hum
%
Delta-T
°C
Wind Press
QNH
hPa
Press
MSL
hPa
Rain since
9am
mm
Dir  Spd
km/h
Gust
km/h
Spd
kts
Gust
kts
21/01:00pm 24.4 23.5 9.2 38 8.2 SSE 4 13 2 7 1023.1 1023.1 0.0
21/12:30pm 24.2 21.5 9.0 38 8.2 S 13 20 7 11 1023.5 1023.5 0.0
21/12:00pm 23.7 21.4 8.9 39 7.9 SSE 11 22 6 12 1024.0 1024.0 0.0
21/11:30am 23.1 22.0 10.5 45 6.9 SSW 7 15 4 8 1024.2 1024.2 0.0
21/11:00am 23.1 21.1 10.2 44 7.0 ESE 11 20 6 11 1024.4 1024.4 0.0
21/10:30am 22.5 21.1 10.9 48 6.4 NNE 9 19 5 10 1024.6 1024.6 0.0
21/10:00am 22.0 21.2 11.7 52 5.7 NNE 7 13 4 7 1024.7 1024.7 0.0
21/09:30am 20.8 19.2 10.3 51 5.7 E 9 15 5 8 1024.7 1024.7 0.0
21/09:00am 20.4 18.7 11.3 56 5.0 SE 11 19 6 10 1024.8 1024.8 0.0
21/08:30am 20.1 19.2 12.6 62 4.2 SE 9 13 5 7 1024.9 1024.9 0.0
21/08:00am 19.3 18.3 13.5 69 3.3 S 11 13 6 7 1024.8 1024.8 0.0
21/07:30am 18.2 17.6 13.5 74 2.7 SSW 9 15 5 8 1024.6 1024.6 0.0
21/07:00am 17.5 17.1 14.2 81 1.9 SSW 9 11 5 6 1024.4 1024.4 0.0
21/06:30am 16.7 16.3 14.0 84 1.5 SSW 9 11 5 6 1024.3 1024.3 0.0
21/06:00am 16.0 15.5 13.7 86 1.3 SSW 9 9 5 5 1024.1 1024.1 0.0
21/05:30am 15.9 15.3 13.6 86 1.3 SSW 9 11 5 6 1023.9 1023.9 0.0
21/05:00am 16.3 15.5 14.0 86 1.3 SSW 11 13 6 7 1023.6 1023.6 0.0
21/04:30am 16.4 15.9 13.9 85 1.4 SSW 9 9 5 5 1023.6 1023.6 0.0
21/04:00am 16.6 16.8 14.2 86 1.4 WSW 6 7 3 4 1023.6 1023.6 0.0
21/03:30am 16.6 16.8 14.1 85 1.4 SSW 6 7 3 4 1023.6 1023.6 0.0
21/03:00am 16.5 16.5 14.3 87 1.3 SW 7 7 4 4 1023.6 1023.6 0.0
21/02:30am 16.4 17.0 14.2 87 1.3 S 4 7 2 4 1023.7 1023.7 0.0
21/02:00am 16.1 17.3 13.8 86 1.3 CALM 0 0 0 0 1023.8 1023.8 0.0
21/01:30am 16.6 16.4 13.7 83 1.6 SSW 7 9 4 5 1024.1 1024.1 0.0
21/01:00am 17.2 16.8 14.1 82 1.8 SW 9 11 5 6 1024.5 1024.5 0.0
21/12:30am 17.1 16.7 14.0 82 1.8 WSW 9 11 5 6 1024.9 1024.9 0.0
21/12:00am 17.2 17.2 14.3 83 1.7 SW 7 7 4 4 1025.1 1025.1 0.0
 
Date/Time
EDT
Temp
°C
App
Temp
°C
Dew
Point
°C
Rel
Hum
%
Delta-T
°C
Wind Press
QNH
hPa
Press
MSL
hPa
Rain since
9am
mm
Dir  Spd
km/h
Gust
km/h
Spd
kts
Gust
kts
20/11:30pm 17.5 17.6 14.0 80 2.0 S 6 6 3 3 1025.1 1025.1 0.0
20/11:00pm 18.2 18.3 13.9 76 2.4 SSE 6 7 3 4 1025.3 1025.3 0.0
20/10:30pm 18.2 19.5 14.1 77 2.4 CALM 0 0 0 0 1025.5 1025.5 0.0
20/10:00pm 18.5 18.3 13.6 73 2.8 SE 7 7 4 4 1025.3 1025.3 0.0
20/09:30pm 18.8 17.9 13.6 72 3.0 ESE 11 15 6 8 1025.3 1025.3 0.0
20/09:00pm 19.1 18.2 13.7 71 3.1 ESE 11 15 6 8 1024.9 1024.9 0.0
20/08:30pm 19.5 17.4 13.7 69 3.3 ESE 17 19 9 10 1024.6 1024.6 0.0
20/08:00pm 19.9 18.5 13.4 66 3.7 E 13 22 7 12 1024.3 1024.3 0.0
20/07:30pm 20.1 17.9 13.3 65 3.9 E 17 24 9 13 1024.0 1024.0 0.0
20/07:00pm 20.9 18.2 13.4 62 4.3 E 20 26 11 14 1023.7 1023.7 0.0
20/06:30pm 21.7 18.9 13.3 59 4.8 E 20 30 11 16 1023.4 1023.4 0.0
20/06:00pm 22.4 18.9 13.5 57 5.1 ESE 24 32 13 17 1023.0 1023.0 0.0
20/05:30pm 23.5 20.1 13.7 54 5.7 ESE 24 32 13 17 1022.6 1022.6 0.0
20/05:00pm 24.0 21.5 14.1 54 5.8 SE 20 30 11 16 1022.7 1022.7 0.0
20/04:30pm 24.6 22.1 14.1 52 6.2 ESE 20 28 11 15 1022.7 1022.7 0.0
20/04:00pm 24.2 21.6 13.7 52 6.1 ESE 20 30 11 16 1022.8 1022.8 0.0
20/03:30pm 24.0 21.9 13.5 52 6.1 SE 17 24 9 13 1023.2 1023.2 0.0
20/03:00pm 24.9 25.3 14.7 53 6.1 SSW 6 19 3 10 1023.5 1023.5 0.0
20/02:30pm 23.8 24.5 16.1 62 4.7 SSW 7 13 4 7 1024.1 1024.1 0.0
20/02:00pm 22.4 23.0 15.7 66 4.0 NW 7 17 4 9 1024.6 1024.6 0.0
20/01:30pm 22.3 23.2 15.2 64 4.2 SSE 4 15 2 8 1025.0 1025.0 0.0
20/01:00pm 21.6 23.2 18.2 81 2.1 ESE 7 11 4 6 1025.3 1025.3 0.0
20/12:30pm 20.0 20.1 15.6 76 2.6 SSE 9 15 5 8 1025.7 1025.7 0.0
20/12:00pm 19.9 18.7 16.2 79 2.2 SSE 17 24 9 13 1025.8 1025.8 0.0
20/11:30am 20.5 19.4 14.4 68 3.6 SSE 13 20 7 11 1025.7 1025.7 0.0
20/11:00am 21.0 19.6 15.5 71 3.3 S 17 22 9 12 1025.9 1025.9 0.0
20/10:30am 21.1 20.0 15.4 70 3.4 SSE 15 22 8 12 1025.8 1025.8 0.0
20/10:00am 20.1 18.8 14.7 71 3.1 S 15 19 8 10 1025.8 1025.8 0.0
20/09:30am 19.8 18.7 14.2 70 3.2 SSE 13 19 7 10 1025.7 1025.7 0.0
20/09:00am 19.8 20.2 14.8 73 2.9 SSW 6 13 3 7 1025.8 1025.8 0.0
20/08:30am 18.3 18.1 14.6 79 2.1 SW 9 15 5 8 1025.8 1025.8 0.0
20/08:00am 17.9 17.5 15.3 85 1.5 WSW 11 15 6 8 1025.6 1025.6 0.0
20/07:30am 17.1 17.4 15.1 88 1.2 SSW 7 11 4 6 1025.5 1025.5 0.0
20/07:00am 16.8 17.7 15.0 89 1.0 SW 4 9 2 5 1025.0 1025.0 0.0
20/06:30am 16.5 17.2 15.5 94 0.6 SW 6 9 3 5 1024.5 1024.5 0.0
20/06:00am 16.0 17.6 14.9 93 0.6 CALM 0 6 0 3 1024.3 1024.3 0.0
20/05:30am 15.8 16.0 14.8 94 0.6 NE 7 9 4 5 1024.2 1024.2 0.0
20/05:00am 16.2 15.7 14.9 92 0.7 NE 11 17 6 9 1024.1 1024.1 0.0
20/04:30am 16.3 17.4 14.7 90 0.9 SW 2 6 1 3 1023.9 1023.9 0.0
20/04:00am 16.3 17.5 14.8 91 0.9 S 2 7 1 4 1023.8 1023.8 0.0
20/03:30am 16.1 16.0 15.0 93 0.6 SW 9 13 5 7 1023.8 1023.8 0.0
20/03:00am 15.5 16.3 14.7 95 0.5 SW 4 7 2 4 1024.1 1024.1 0.0
20/02:30am 15.4 15.2 14.6 95 0.5 SW 9 11 5 6 1024.0 1024.0 0.0
20/02:00am 15.7 15.5 14.7 94 0.6 SW 9 11 5 6 1024.2 1024.2 0.0
20/01:30am 16.2 16.6 15.4 95 0.5 SW 7 9 4 5 1024.4 1024.4 0.0
20/01:00am 16.6 17.3 16.0 96 0.4 WSW 7 9 4 5 1024.4 1024.4 0.0
20/12:30am 16.9 17.7 15.9 94 0.6 SSW 6 7 3 4 1024.5 1024.5 0.0
20/12:00am 17.3 18.4 16.5 95 0.5 SSW 6 7 3 4 1024.5 1024.5 0.0
 
Date/Time
EDT
Temp
°C
App
Temp
°C
Dew
Point
°C
Rel
Hum
%
Delta-T
°C
Wind Press
QNH
hPa
Press
MSL
hPa
Rain since
9am
mm
Dir  Spd
km/h
Gust
km/h
Spd
kts
Gust
kts
19/11:30pm 17.7 18.6 16.6 93 0.7 SSW 7 9 4 5 1024.7 1024.7 0.0
19/11:00pm 17.5 18.6 16.5 94 0.6 SW 6 7 3 4 1024.6 1024.6 0.0
19/10:30pm 17.3 18.1 16.3 94 0.6 SW 7 9 4 5 1024.7 1024.7 0.0
19/10:00pm 17.4 17.8 16.4 94 0.6 SW 9 11 5 6 1024.8 1024.8 0.0
19/09:30pm 17.2 17.9 16.1 93 0.7 SW 7 9 4 5 1024.6 1024.6 0.0
19/09:00pm 17.3 17.0 15.5 89 1.0 S 11 15 6 8 1024.3 1024.3 0.0
19/08:30pm 17.7 16.0 15.7 88 1.2 SSE 19 22 10 12 1023.9 1023.9 0.0
19/08:00pm 18.4 17.8 16.6 89 1.1 ESE 15 20 8 11 1023.7 1023.7 0.0
19/07:30pm 19.2 15.9 15.1 77 2.4 E 26 35 14 19 1023.3 1023.3 0.0
19/07:00pm 20.5 17.2 13.9 66 3.8 ESE 24 32 13 17 1022.8 1022.8 0.0
19/06:30pm 21.3 16.7 14.5 65 4.0 ESE 32 39 17 21 1022.2 1022.2 0.0
19/06:27pm 21.6 17.7 14.3 63 4.3 E 28 39 15 21 1022.1 1022.1 0.0
19/06:00pm 24.1 22.1 12.7 49 6.5 E 15 20 8 11 1021.6 1021.6 0.0
19/05:30pm 24.8 21.9 12.4 46 7.1 ESE 19 28 10 15 1021.6 1021.6 0.0
19/05:00pm 23.7 20.1 11.7 47 6.8 ENE 22 30 12 16 1021.5 1021.5 0.0
19/04:30pm 24.7 21.8 13.9 51 6.4 ENE 22 30 12 16 1021.5 1021.5 0.0
19/04:00pm 25.7 22.6 12.2 43 7.7 E 20 28 11 15 1021.5 1021.5 0.0
19/03:30pm 25.3 21.3 11.8 43 7.7 ESE 24 35 13 19 1021.6 1021.6 0.0
19/03:00pm 26.1 21.2 8.6 33 9.4 E 24 37 13 20 1021.8 1021.8 0.0
19/02:30pm 26.0 21.5 10.2 37 8.8 E 24 37 13 20 1021.8 1021.8 0.0
19/02:00pm 24.6 20.0 9.7 39 8.1 E 24 33 13 18 1022.0 1022.0 0.0
19/01:30pm 25.8 22.0 11.2 40 8.3 ESE 22 32 12 17 1022.1 1022.1 0.0
19/01:00pm 25.2 21.4 9.9 38 8.4 ESE 20 32 11 17 1022.2 1022.2 0.0
19/12:30pm 26.1 23.7 11.5 40 8.3 ENE 15 28 8 15 1022.4 1022.4 0.0
19/12:00pm 25.4 22.1 10.8 40 8.2 ESE 19 28 10 15 1022.6 1022.6 0.0
19/11:30am 25.7 23.4 11.8 42 7.9 E 15 26 8 14 1022.9 1022.9 0.0
19/11:00am 23.7 20.4 9.7 41 7.6 ESE 17 30 9 16 1023.1 1023.1 0.0
19/10:30am 22.9 20.3 10.7 46 6.7 SE 15 24 8 13 1023.2 1023.2 0.0
19/10:00am 22.9 20.2 11.6 49 6.3 ESE 17 22 9 12 1023.2 1023.2 0.0
19/09:30am 22.0 20.3 12.3 54 5.5 ESE 13 20 7 11 1023.2 1023.2 0.0
19/09:00am 21.5 20.7 13.9 62 4.4 E 11 17 6 9 1023.4 1023.4 0.4
19/08:30am 21.8 21.1 14.4 63 4.3 E 11 19 6 10 1023.3 1023.3 0.4
19/08:00am 20.6 19.7 13.6 64 4.0 SE 11 20 6 11 1023.1 1023.1 0.4
19/07:30am 20.3 19.9 14.0 67 3.6 SE 9 13 5 7 1022.7 1022.7 0.4
19/07:00am 19.5 18.4 14.3 72 3.0 SSE 13 17 7 9 1022.3 1022.3 0.4
19/06:30am 18.5 18.2 14.4 77 2.4 SSE 9 11 5 6 1021.9 1021.9 0.4
19/06:00am 17.9 17.7 14.6 81 1.9 SSE 9 11 5 6 1021.6 1021.6 0.4
19/05:30am 17.7 17.5 14.8 83 1.7 S 9 13 5 7 1021.3 1021.3 0.4
19/05:00am 17.7 17.7 15.1 85 1.5 S 9 13 5 7 1020.8 1020.8 0.4
19/04:30am 17.8 17.8 15.2 85 1.5 SSE 9 11 5 6 1020.7 1020.7 0.4
19/04:00am 18.0 18.0 15.3 84 1.6 SSE 9 11 5 6 1020.5 1020.5 0.4
19/03:30am 18.0 18.0 15.3 84 1.6 SE 9 13 5 7 1020.4 1020.4 0.4
19/03:00am 18.0 17.5 14.9 82 1.8 SSE 11 13 6 7 1020.1 1020.1 0.4
19/02:30am 18.5 18.8 14.4 77 2.4 SSE 6 9 3 5 1020.2 1020.2 0.4
19/02:00am 18.5 18.6 14.4 77 2.4 SE 7 9 4 5 1020.3 1020.3 0.4
19/01:30am 18.5 19.8 14.2 76 2.5 CALM 0 0 0 0 1020.4 1020.4 0.4
19/01:00am 18.7 20.0 14.2 75 2.6 CALM 0 0 0 0 1020.7 1020.7 0.4
19/12:30am 18.6 20.0 14.3 76 2.5 CALM 0 0 0 0 1021.0 1021.0 0.4
19/12:00am 18.8 20.2 14.3 75 2.6 CALM 0 0 0 0 1021.2 1021.2 0.4
 
Date/Time
EDT
Temp
°C
App
Temp
°C
Dew
Point
°C
Rel
Hum
%
Delta-T
°C
Wind Press
QNH
hPa
Press
MSL
hPa
Rain since
9am
mm
Dir  Spd
km/h
Gust
km/h
Spd
kts
Gust
kts
18/11:30pm 19.1 19.3 14.1 73 2.9 E 6 9 3 5 1021.2 1021.2 0.4
18/11:00pm 19.2 19.2 14.2 73 2.9 E 7 11 4 6 1021.1 1021.1 0.4
18/10:30pm 19.3 18.8 13.9 71 3.1 ENE 9 17 5 9 1021.0 1021.0 0.4
18/10:00pm 19.8 18.6 14.0 69 3.3 ENE 13 20 7 11 1020.9 1020.9 0.4
18/09:30pm 19.9 18.0 14.3 70 3.2 E 17 22 9 12 1020.7 1020.7 0.4
18/09:00pm 20.0 17.6 14.4 70 3.2 ENE 20 30 11 16 1020.4 1020.4 0.4
18/08:30pm 20.0 17.6 14.4 70 3.3 ENE 20 33 11 18 1020.1 1020.1 0.4
18/08:00pm 20.1 18.7 14.5 70 3.3 ENE 15 22 8 12 1019.9 1019.9 0.4
18/07:30pm 20.6 18.2 14.3 67 3.7 ENE 20 30 11 16 1019.6 1019.6 0.4
18/07:00pm 21.1 18.9 14.5 66 3.9 ENE 19 28 10 15 1019.2 1019.2 0.4
18/06:30pm 21.4 19.2 14.8 66 3.9 ENE 20 30 11 16 1018.7 1018.7 0.4
18/06:00pm 22.0 20.1 15.1 65 4.1 ENE 19 28 10 15 1018.5 1018.5 0.4
18/05:30pm 21.9 19.9 15.0 65 4.1 E 19 28 10 15 1018.3 1018.3 0.4
18/05:00pm 22.4 20.2 15.0 63 4.4 ENE 20 28 11 15 1018.1 1018.1 0.4
18/04:30pm 22.8 19.8 14.9 61 4.7 E 24 35 13 19 1018.2 1018.2 0.4
18/04:00pm 23.5 20.9 15.0 59 5.1 ENE 22 32 12 17 1018.3 1018.3 0.4
18/03:30pm 22.6 19.7 15.0 62 4.5 ENE 24 39 13 21 1018.4 1018.4 0.4
18/03:00pm 23.0 20.9 15.3 62 4.6 E 20 32 11 17 1018.4 1018.4 0.4
18/02:30pm 23.3 20.6 15.6 62 4.6 E 24 35 13 19 1018.4 1018.4 0.4
18/02:00pm 23.5 21.0 16.1 63 4.5 E 24 35 13 19 1018.4 1018.4 0.4
18/01:30pm 24.0 21.1 15.2 58 5.3 E 24 39 13 21 1018.5 1018.5 0.4

Other Formats:

Comma delimited format used in spreadsheet applications
http://www.bom.gov.au/fwo/IDN60801/IDN60801.95753.axf

JavaScript Object Notation format (JSON) in row-major order
http://www.bom.gov.au/fwo/IDN60801/IDN60801.95753.json